sensor_id;sensor_type;location;lat;lon;timestamp;pressure;altitude;pressure_sealevel;temperature;humidity
48553;BME280;34335;51.566;6.994;2023-07-29T00:01:51;100147.34;;;20.08;100.00
48553;BME280;34335;51.566;6.994;2023-07-29T00:04:17;100143.91;;;20.06;100.00
48553;BME280;34335;51.566;6.994;2023-07-29T00:06:42;100151.69;;;19.91;100.00
48553;BME280;34335;51.566;6.994;2023-07-29T00:09:08;100146.53;;;19.88;100.00
48553;BME280;34335;51.566;6.994;2023-07-29T00:11:33;100144.47;;;19.95;100.00
48553;BME280;34335;51.566;6.994;2023-07-29T00:14:02;100149.81;;;19.93;100.00
48553;BME280;34335;51.566;6.994;2023-07-29T00:16:27;100147.66;;;19.83;100.00
48553;BME280;34335;51.566;6.994;2023-07-29T00:18:53;100152.47;;;19.93;100.00
48553;BME280;34335;51.566;6.994;2023-07-29T00:21:18;100159.53;;;19.74;100.00
48553;BME280;34335;51.566;6.994;2023-07-29T00:23:43;100167.31;;;19.39;100.00
48553;BME280;34335;51.566;6.994;2023-07-29T00:26:09;100153.91;;;19.43;100.00
48553;BME280;34335;51.566;6.994;2023-07-29T00:28:34;100155.13;;;19.36;100.00
48553;BME280;34335;51.566;6.994;2023-07-29T00:30:59;100147.44;;;19.31;100.00
48553;BME280;34335;51.566;6.994;2023-07-29T00:33:25;100149.63;;;19.41;100.00
48553;BME280;34335;51.566;6.994;2023-07-29T00:35:50;100138.03;;;19.45;100.00
48553;BME280;34335;51.566;6.994;2023-07-29T00:38:16;100140.19;;;19.37;100.00
48553;BME280;34335;51.566;6.994;2023-07-29T00:40:41;100138.59;;;19.33;100.00
48553;BME280;34335;51.566;6.994;2023-07-29T00:43:06;100133.31;;;19.33;100.00
48553;BME280;34335;51.566;6.994;2023-07-29T00:45:32;100122.66;;;19.36;100.00
48553;BME280;34335;51.566;6.994;2023-07-29T00:47:59;100124.56;;;19.32;100.00
48553;BME280;34335;51.566;6.994;2023-07-29T00:50:25;100121.03;;;19.33;100.00
48553;BME280;34335;51.566;6.994;2023-07-29T00:52:53;100121.56;;;19.21;100.00
48553;BME280;34335;51.566;6.994;2023-07-29T00:55:19;100126.28;;;19.14;100.00
48553;BME280;34335;51.566;6.994;2023-07-29T00:57:44;100130.03;;;19.08;100.00
48553;BME280;34335;51.566;6.994;2023-07-29T01:00:13;100129.19;;;19.08;100.00
48553;BME280;34335;51.566;6.994;2023-07-29T01:02:39;100124.06;;;19.05;100.00
48553;BME280;34335;51.566;6.994;2023-07-29T01:05:05;100126.41;;;18.90;100.00
48553;BME280;34335;51.566;6.994;2023-07-29T01:07:49;100124.47;;;18.95;100.00
48553;BME280;34335;51.566;6.994;2023-07-29T01:12:53;100119.59;;;18.86;100.00
48553;BME280;34335;51.566;6.994;2023-07-29T01:18:31;100117.03;;;18.84;100.00
48553;BME280;34335;51.566;6.994;2023-07-29T01:21:00;100116.16;;;18.84;100.00
48553;BME280;34335;51.566;6.994;2023-07-29T01:23:31;100123.03;;;18.88;100.00
48553;BME280;34335;51.566;6.994;2023-07-29T01:25:58;100117.94;;;19.04;100.00
48553;BME280;34335;51.566;6.994;2023-07-29T01:28:24;100123.44;;;18.79;100.00
48553;BME280;34335;51.566;6.994;2023-07-29T01:30:52;100120.81;;;18.79;100.00
48553;BME280;34335;51.566;6.994;2023-07-29T01:33:35;100113.44;;;18.85;100.00
48553;BME280;34335;51.566;6.994;2023-07-29T01:36:07;100115.75;;;18.74;100.00
48553;BME280;34335;51.566;6.994;2023-07-29T01:38:35;100109.38;;;18.78;100.00
48553;BME280;34335;51.566;6.994;2023-07-29T01:41:02;100106.72;;;18.80;100.00
48553;BME280;34335;51.566;6.994;2023-07-29T01:43:29;100098.97;;;18.96;100.00
48553;BME280;34335;51.566;6.994;2023-07-29T01:45:56;100096.28;;;18.97;100.00
48553;BME280;34335;51.566;6.994;2023-07-29T01:48:21;100094.09;;;18.87;100.00
48553;BME280;34335;51.566;6.994;2023-07-29T01:50:47;100086.97;;;18.89;100.00
48553;BME280;34335;51.566;6.994;2023-07-29T01:53:12;100092.13;;;18.92;100.00
48553;BME280;34335;51.566;6.994;2023-07-29T01:55:38;100095.59;;;18.92;100.00
48553;BME280;34335;51.566;6.994;2023-07-29T01:58:04;100093.97;;;18.90;100.00
48553;BME280;34335;51.566;6.994;2023-07-29T02:00:29;100091.41;;;18.88;100.00
48553;BME280;34335;51.566;6.994;2023-07-29T02:02:55;100088.91;;;18.85;100.00
48553;BME280;34335;51.566;6.994;2023-07-29T02:05:20;100081.97;;;19.03;100.00
48553;BME280;34335;51.566;6.994;2023-07-29T02:07:45;100093.97;;;18.90;100.00
48553;BME280;34335;51.566;6.994;2023-07-29T02:10:11;100090.50;;;18.89;100.00
48553;BME280;34335;51.566;6.994;2023-07-29T02:12:36;100088.97;;;18.83;100.00
48553;BME280;34335;51.566;6.994;2023-07-29T02:15:01;100081.13;;;18.82;100.00
48553;BME280;34335;51.566;6.994;2023-07-29T02:17:27;100072.31;;;18.83;100.00
48553;BME280;34335;51.566;6.994;2023-07-29T02:19:52;100066.78;;;18.89;100.00
48553;BME280;34335;51.566;6.994;2023-07-29T02:22:18;100058.94;;;18.88;100.00
48553;BME280;34335;51.566;6.994;2023-07-29T02:24:44;100061.75;;;19.04;100.00
48553;BME280;34335;51.566;6.994;2023-07-29T02:27:10;100062.63;;;19.04;100.00
48553;BME280;34335;51.566;6.994;2023-07-29T02:29:35;100069.94;;;18.97;100.00
48553;BME280;34335;51.566;6.994;2023-07-29T02:32:02;100065.31;;;18.82;100.00
48553;BME280;34335;51.566;6.994;2023-07-29T02:34:27;100059.41;;;18.97;100.00
48553;BME280;34335;51.566;6.994;2023-07-29T02:36:52;100057.22;;;18.87;100.00
48553;BME280;34335;51.566;6.994;2023-07-29T02:39:18;100058.22;;;18.84;100.00
48553;BME280;34335;51.566;6.994;2023-07-29T02:41:43;100063.41;;;18.85;100.00
48553;BME280;34335;51.566;6.994;2023-07-29T02:44:09;100067.19;;;18.80;100.00
48553;BME280;34335;51.566;6.994;2023-07-29T02:46:34;100071.69;;;18.78;100.00
48553;BME280;34335;51.566;6.994;2023-07-29T02:49:01;100081.84;;;18.66;100.00
48553;BME280;34335;51.566;6.994;2023-07-29T02:51:26;100072.88;;;18.71;100.00
48553;BME280;34335;51.566;6.994;2023-07-29T02:53:51;100063.88;;;18.56;100.00
48553;BME280;34335;51.566;6.994;2023-07-29T02:56:17;100057.84;;;18.73;100.00
48553;BME280;34335;51.566;6.994;2023-07-29T02:58:43;100058.72;;;18.73;100.00
48553;BME280;34335;51.566;6.994;2023-07-29T03:01:09;100068.38;;;18.73;100.00
48553;BME280;34335;51.566;6.994;2023-07-29T03:03:35;100070.50;;;18.64;100.00
48553;BME280;34335;51.566;6.994;2023-07-29T03:06:02;100078.00;;;18.74;100.00
48553;BME280;34335;51.566;6.994;2023-07-29T03:08:28;100075.56;;;18.69;100.00
48553;BME280;34335;51.566;6.994;2023-07-29T03:10:54;100076.56;;;18.66;100.00
48553;BME280;34335;51.566;6.994;2023-07-29T03:13:19;100079.19;;;18.66;100.00
48553;BME280;34335;51.566;6.994;2023-07-29T03:15:45;100079.16;;;18.47;100.00
48553;BME280;34335;51.566;6.994;2023-07-29T03:18:10;100076.56;;;18.66;100.00
48553;BME280;34335;51.566;6.994;2023-07-29T03:20:37;100076.97;;;18.57;100.00
48553;BME280;34335;51.566;6.994;2023-07-29T03:23:02;100075.97;;;18.60;100.00
48553;BME280;34335;51.566;6.994;2023-07-29T03:25:28;100080.13;;;18.65;100.00
48553;BME280;34335;51.566;6.994;2023-07-29T03:27:54;100084.66;;;18.62;100.00
48553;BME280;34335;51.566;6.994;2023-07-29T03:30:20;100080.13;;;18.65;100.00
48553;BME280;34335;51.566;6.994;2023-07-29T03:32:46;100071.63;;;18.59;100.00
48553;BME280;34335;51.566;6.994;2023-07-29T03:35:12;100072.28;;;18.64;100.00
48553;BME280;34335;51.566;6.994;2023-07-29T03:37:37;100079.59;;;18.57;100.00
48553;BME280;34335;51.566;6.994;2023-07-29T03:40:03;100077.25;;;18.51;100.00
48553;BME280;34335;51.566;6.994;2023-07-29T03:42:29;100074.22;;;18.60;100.00
48553;BME280;34335;51.566;6.994;2023-07-29T03:44:54;100066.16;;;18.63;100.00
48553;BME280;34335;51.566;6.994;2023-07-29T03:47:20;100056.53;;;18.62;100.00
48553;BME280;34335;51.566;6.994;2023-07-29T03:49:45;100060.56;;;18.71;100.00
48553;BME280;34335;51.566;6.994;2023-07-29T03:52:10;100065.25;;;18.64;100.00
48553;BME280;34335;51.566;6.994;2023-07-29T03:54:36;100061.75;;;18.64;100.00
48553;BME280;34335;51.566;6.994;2023-07-29T03:57:01;100056.69;;;18.59;100.00
48553;BME280;34335;51.566;6.994;2023-07-29T03:59:27;100046.47;;;18.72;100.00
48553;BME280;34335;51.566;6.994;2023-07-29T04:01:52;100050.34;;;18.63;100.00
48553;BME280;34335;51.566;6.994;2023-07-29T04:04:17;100057.34;;;18.64;100.00
48553;BME280;34335;51.566;6.994;2023-07-29T04:06:42;100055.00;;;18.58;100.00
48553;BME280;34335;51.566;6.994;2023-07-29T04:09:08;100061.88;;;18.61;100.00
48553;BME280;34335;51.566;6.994;2023-07-29T04:11:34;100056.75;;;18.58;100.00
48553;BME280;34335;51.566;6.994;2023-07-29T04:13:59;100061.81;;;18.62;100.00
48553;BME280;34335;51.566;6.994;2023-07-29T04:16:25;100068.16;;;18.58;100.00
48553;BME280;34335;51.566;6.994;2023-07-29T04:18:50;100060.25;;;18.58;100.00
48553;BME280;34335;51.566;6.994;2023-07-29T04:21:15;100067.44;;;18.55;100.00
48553;BME280;34335;51.566;6.994;2023-07-29T04:23:41;100064.34;;;18.45;100.00
48553;BME280;34335;51.566;6.994;2023-07-29T04:26:06;100046.06;;;18.42;100.00
48553;BME280;34335;51.566;6.994;2023-07-29T04:28:31;100049.22;;;18.50;100.00
48553;BME280;34335;51.566;6.994;2023-07-29T04:30:56;100047.00;;;18.41;100.00
48553;BME280;34335;51.566;6.994;2023-07-29T04:33:22;100043.66;;;18.37;100.00
48553;BME280;34335;51.566;6.994;2023-07-29T04:35:47;100057.94;;;18.31;100.00
48553;BME280;34335;51.566;6.994;2023-07-29T04:38:12;100062.84;;;18.18;100.00
48553;BME280;34335;51.566;6.994;2023-07-29T04:40:38;100075.06;;;18.19;100.00
48553;BME280;34335;51.566;6.994;2023-07-29T04:43:03;100078.91;;;18.12;100.00
48553;BME280;34335;51.566;6.994;2023-07-29T04:45:29;100091.06;;;18.15;100.00
48553;BME280;34335;51.566;6.994;2023-07-29T04:47:54;100080.53;;;18.15;100.00
48553;BME280;34335;51.566;6.994;2023-07-29T04:50:20;100091.13;;;18.13;100.00
48553;BME280;34335;51.566;6.994;2023-07-29T04:52:45;100092.50;;;18.01;100.00
48553;BME280;34335;51.566;6.994;2023-07-29T04:55:10;100096.66;;;18.07;100.00
48553;BME280;34335;51.566;6.994;2023-07-29T04:57:36;100100.16;;;18.08;100.00
48553;BME280;34335;51.566;6.994;2023-07-29T05:00:02;100111.97;;;17.97;100.00
48553;BME280;34335;51.566;6.994;2023-07-29T05:02:28;100113.69;;;17.98;100.00
48553;BME280;34335;51.566;6.994;2023-07-29T05:04:53;100115.13;;;18.05;100.00
48553;BME280;34335;51.566;6.994;2023-07-29T05:07:18;100105.41;;;18.08;100.00
48553;BME280;34335;51.566;6.994;2023-07-29T05:09:44;100083.56;;;18.05;100.00
48553;BME280;34335;51.566;6.994;2023-07-29T05:12:09;100078.69;;;17.96;100.00
48553;BME280;34335;51.566;6.994;2023-07-29T05:14:34;100066.97;;;18.03;100.00
48553;BME280;34335;51.566;6.994;2023-07-29T05:17:00;100051.06;;;18.06;100.00
48553;BME280;34335;51.566;6.994;2023-07-29T05:19:26;100043.28;;;18.03;100.00
48553;BME280;34335;51.566;6.994;2023-07-29T05:21:51;100043.84;;;18.12;100.00
48553;BME280;34335;51.566;6.994;2023-07-29T05:24:17;100060.59;;;18.09;100.00
48553;BME280;34335;51.566;6.994;2023-07-29T05:26:42;100061.34;;;18.13;100.00
48553;BME280;34335;51.566;6.994;2023-07-29T05:29:07;100065.94;;;18.08;100.00
48553;BME280;34335;51.566;6.994;2023-07-29T05:31:33;100061.66;;;18.05;100.00
48553;BME280;34335;51.566;6.994;2023-07-29T05:33:58;100071.50;;;18.00;100.00
48553;BME280;34335;51.566;6.994;2023-07-29T05:36:24;100073.94;;;18.04;100.00
48553;BME280;34335;51.566;6.994;2023-07-29T05:38:50;100099.03;;;17.91;100.00
48553;BME280;34335;51.566;6.994;2023-07-29T05:41:16;100105.16;;;17.91;100.00
48553;BME280;34335;51.566;6.994;2023-07-29T05:43:41;100107.78;;;17.91;100.00
48553;BME280;34335;51.566;6.994;2023-07-29T05:46:08;100109.13;;;17.80;100.00
48553;BME280;34335;51.566;6.994;2023-07-29T05:48:34;100127.19;;;17.67;100.00
48553;BME280;34335;51.566;6.994;2023-07-29T05:50:59;100130.19;;;17.80;100.00
48553;BME280;34335;51.566;6.994;2023-07-29T05:53:24;100137.47;;;17.73;100.00
48553;BME280;34335;51.566;6.994;2023-07-29T05:55:50;100129.72;;;17.90;100.00
48553;BME280;34335;51.566;6.994;2023-07-29T05:58:15;100128.34;;;17.82;100.00
48553;BME280;34335;51.566;6.994;2023-07-29T06:00:41;100135.13;;;17.87;100.00
48553;BME280;34335;51.566;6.994;2023-07-29T06:03:06;100126.25;;;17.90;100.00
48553;BME280;34335;51.566;6.994;2023-07-29T06:05:31;100135.38;;;17.59;100.00
48553;BME280;34335;51.566;6.994;2023-07-29T06:07:57;100136.47;;;17.53;100.00
48553;BME280;34335;51.566;6.994;2023-07-29T06:10:22;100143.78;;;17.69;100.00
48553;BME280;34335;51.566;6.994;2023-07-29T06:12:47;100149.63;;;17.75;100.00
48553;BME280;34335;51.566;6.994;2023-07-29T06:15:13;100149.44;;;17.80;100.00
48553;BME280;34335;51.566;6.994;2023-07-29T06:17:39;100157.09;;;17.64;100.00
48553;BME280;34335;51.566;6.994;2023-07-29T06:20:05;100163.03;;;17.69;100.00
48553;BME280;34335;51.566;6.994;2023-07-29T06:22:31;100154.47;;;17.64;100.00
48553;BME280;34335;51.566;6.994;2023-07-29T06:24:56;100156.66;;;17.75;100.00
48553;BME280;34335;51.566;6.994;2023-07-29T06:27:21;100164.91;;;17.66;100.00
48553;BME280;34335;51.566;6.994;2023-07-29T06:29:47;100168.91;;;17.76;100.00
48553;BME280;34335;51.566;6.994;2023-07-29T06:32:12;100174.06;;;17.79;100.00
48553;BME280;34335;51.566;6.994;2023-07-29T06:34:37;100173.00;;;17.83;100.00
48553;BME280;34335;51.566;6.994;2023-07-29T06:37:03;100168.41;;;17.88;100.00
48553;BME280;34335;51.566;6.994;2023-07-29T06:39:28;100179.91;;;17.86;100.00
48553;BME280;34335;51.566;6.994;2023-07-29T06:41:53;100174.25;;;17.95;100.00
48553;BME280;34335;51.566;6.994;2023-07-29T06:44:19;100171.09;;;18.09;100.00
48553;BME280;34335;51.566;6.994;2023-07-29T06:46:44;100179.06;;;18.08;100.00
48553;BME280;34335;51.566;6.994;2023-07-29T06:49:09;100170.16;;;18.12;100.00
48553;BME280;34335;51.566;6.994;2023-07-29T06:51:35;100171.72;;;17.94;100.00
48553;BME280;34335;51.566;6.994;2023-07-29T06:54:01;100170.00;;;17.92;100.00
48553;BME280;34335;51.566;6.994;2023-07-29T06:56:27;100170.63;;;17.99;100.00
48553;BME280;34335;51.566;6.994;2023-07-29T06:58:52;100173.00;;;18.05;100.00
48553;BME280;34335;51.566;6.994;2023-07-29T07:01:17;100177.47;;;18.03;100.00
48553;BME280;34335;51.566;6.994;2023-07-29T07:03:43;100163.97;;;18.13;100.00
48553;BME280;34335;51.566;6.994;2023-07-29T07:06:08;100167.19;;;18.19;100.00
48553;BME280;34335;51.566;6.994;2023-07-29T07:08:33;100169.81;;;18.19;100.00
48553;BME280;34335;51.566;6.994;2023-07-29T07:10:59;100165.09;;;18.28;100.00
48553;BME280;34335;51.566;6.994;2023-07-29T07:13:24;100159.97;;;18.25;100.00
48553;BME280;34335;51.566;6.994;2023-07-29T07:15:49;100161.09;;;18.40;100.00
48553;BME280;34335;51.566;6.994;2023-07-29T07:18:15;100172.78;;;18.12;100.00
48553;BME280;34335;51.566;6.994;2023-07-29T07:20:40;100169.72;;;18.43;100.00
48553;BME280;34335;51.566;6.994;2023-07-29T07:23:06;100167.34;;;18.58;100.00
48553;BME280;34335;51.566;6.994;2023-07-29T07:25:33;100168.72;;;18.87;100.00
48553;BME280;34335;51.566;6.994;2023-07-29T07:27:59;100166.09;;;19.08;100.00
48553;BME280;34335;51.566;6.994;2023-07-29T07:30:24;100163.75;;;19.40;100.00
48553;BME280;34335;51.566;6.994;2023-07-29T07:32:49;100174.78;;;19.48;100.00
48553;BME280;34335;51.566;6.994;2023-07-29T07:35:15;100172.75;;;19.36;100.00
48553;BME280;34335;51.566;6.994;2023-07-29T07:37:41;100174.22;;;19.22;100.00
48553;BME280;34335;51.566;6.994;2023-07-29T07:40:06;100172.88;;;19.13;100.00
48553;BME280;34335;51.566;6.994;2023-07-29T07:42:32;100174.13;;;19.05;100.00
48553;BME280;34335;51.566;6.994;2023-07-29T07:44:58;100174.00;;;19.08;100.00
48553;BME280;34335;51.566;6.994;2023-07-29T07:47:23;100171.53;;;19.43;100.00
48553;BME280;34335;51.566;6.994;2023-07-29T07:49:48;100178.84;;;19.74;100.00
48553;BME280;34335;51.566;6.994;2023-07-29T07:52:15;100173.56;;;19.74;100.00
48553;BME280;34335;51.566;6.994;2023-07-29T07:54:40;100164.81;;;19.74;100.00
48553;BME280;34335;51.566;6.994;2023-07-29T07:57:06;100167.53;;;19.53;100.00
48553;BME280;34335;51.566;6.994;2023-07-29T07:59:31;100170.66;;;19.61;100.00
48553;BME280;34335;51.566;6.994;2023-07-29T08:01:56;100165.00;;;19.88;100.00
48553;BME280;34335;51.566;6.994;2023-07-29T08:04:22;100166.91;;;19.85;100.00
48553;BME280;34335;51.566;6.994;2023-07-29T08:06:47;100177.47;;;19.85;100.00
48553;BME280;34335;51.566;6.994;2023-07-29T08:09:12;100175.84;;;19.82;100.00
48553;BME280;34335;51.566;6.994;2023-07-29T08:11:37;100173.75;;;20.08;100.00
48553;BME280;34335;51.566;6.994;2023-07-29T08:14:03;100169.72;;;20.36;100.00
48553;BME280;34335;51.566;6.994;2023-07-29T08:16:28;100171.53;;;20.18;100.00
48553;BME280;34335;51.566;6.994;2023-07-29T08:18:53;100176.34;;;19.90;100.00
48553;BME280;34335;51.566;6.994;2023-07-29T08:21:19;100171.06;;;20.10;100.00
48553;BME280;34335;51.566;6.994;2023-07-29T08:23:44;100172.59;;;20.14;100.00
48553;BME280;34335;51.566;6.994;2023-07-29T08:26:09;100173.47;;;20.32;100.00
48553;BME280;34335;51.566;6.994;2023-07-29T08:28:39;100181.38;;;20.49;100.00
48553;BME280;34335;51.566;6.994;2023-07-29T08:31:05;100182.63;;;20.77;100.00
48553;BME280;34335;51.566;6.994;2023-07-29T08:33:31;100174.91;;;20.73;100.00
48553;BME280;34335;51.566;6.994;2023-07-29T08:35:57;100172.53;;;20.85;100.00
48553;BME280;34335;51.566;6.994;2023-07-29T08:38:22;100177.50;;;20.92;100.00
48553;BME280;34335;51.566;6.994;2023-07-29T08:41:25;100171.22;;;21.26;100.00
48553;BME280;34335;51.566;6.994;2023-07-29T08:46:37;100181.75;;;21.28;100.00
48553;BME280;34335;51.566;6.994;2023-07-29T08:49:03;100178.03;;;21.80;100.00
48553;BME280;34335;51.566;6.994;2023-07-29T08:51:31;100169.81;;;22.17;100.00
48553;BME280;34335;51.566;6.994;2023-07-29T08:53:58;100160.19;;;22.30;100.00
48553;BME280;34335;51.566;6.994;2023-07-29T08:56:24;100156.22;;;22.37;100.00
48553;BME280;34335;51.566;6.994;2023-07-29T08:58:50;100147.94;;;22.44;100.00
48553;BME280;34335;51.566;6.994;2023-07-29T09:01:16;100151.22;;;22.63;100.00
48553;BME280;34335;51.566;6.994;2023-07-29T09:03:41;100150.47;;;22.90;100.00
48553;BME280;34335;51.566;6.994;2023-07-29T09:06:08;100150.00;;;22.98;100.00
48553;BME280;34335;51.566;6.994;2023-07-29T09:08:34;100143.25;;;23.07;100.00
48553;BME280;34335;51.566;6.994;2023-07-29T09:10:59;100153.38;;;23.00;100.00
48553;BME280;34335;51.566;6.994;2023-07-29T09:13:25;100160.97;;;22.92;100.00
48553;BME280;34335;51.566;6.994;2023-07-29T09:15:54;100168.16;;;22.90;100.00
48553;BME280;34335;51.566;6.994;2023-07-29T09:18:20;100166.75;;;22.98;100.00
48553;BME280;34335;51.566;6.994;2023-07-29T09:20:47;100175.94;;;23.07;100.00
48553;BME280;34335;51.566;6.994;2023-07-29T09:23:13;100172.00;;;23.71;100.00
48553;BME280;34335;51.566;6.994;2023-07-29T09:25:39;100168.63;;;23.81;100.00
48553;BME280;34335;51.566;6.994;2023-07-29T09:28:13;100174.25;;;23.35;100.00
48553;BME280;34335;51.566;6.994;2023-07-29T09:30:39;100172.78;;;23.15;100.00
48553;BME280;34335;51.566;6.994;2023-07-29T09:33:05;100168.97;;;23.62;100.00
48553;BME280;34335;51.566;6.994;2023-07-29T09:35:32;100177.06;;;23.88;100.00
48553;BME280;34335;51.566;6.994;2023-07-29T09:37:58;100177.78;;;24.05;100.00
48553;BME280;34335;51.566;6.994;2023-07-29T09:40:23;100172.63;;;23.32;100.00
48553;BME280;34335;51.566;6.994;2023-07-29T09:42:55;100179.31;;;23.09;100.00
48553;BME280;34335;51.566;6.994;2023-07-29T09:45:24;100189.16;;;22.64;100.00
48553;BME280;34335;51.566;6.994;2023-07-29T09:47:49;100188.34;;;23.07;100.00
48553;BME280;34335;51.566;6.994;2023-07-29T09:50:16;100186.03;;;22.86;100.00
48553;BME280;34335;51.566;6.994;2023-07-29T09:52:42;100186.22;;;22.68;100.00
48553;BME280;34335;51.566;6.994;2023-07-29T09:55:10;100183.34;;;22.43;100.00
48553;BME280;34335;51.566;6.994;2023-07-29T09:57:37;100195.38;;;22.32;100.00
48553;BME280;34335;51.566;6.994;2023-07-29T10:00:04;100189.78;;;22.53;100.00
48553;BME280;34335;51.566;6.994;2023-07-29T10:02:35;100195.47;;;22.61;100.00
48553;BME280;34335;51.566;6.994;2023-07-29T10:05:02;100181.69;;;22.70;100.00
48553;BME280;34335;51.566;6.994;2023-07-29T10:07:29;100179.13;;;22.83;100.00
48553;BME280;34335;51.566;6.994;2023-07-29T10:09:55;100181.56;;;23.31;100.00
48553;BME280;34335;51.566;6.994;2023-07-29T10:12:22;100177.78;;;23.63;100.00
48553;BME280;34335;51.566;6.994;2023-07-29T10:14:48;100187.53;;;23.62;100.00
48553;BME280;34335;51.566;6.994;2023-07-29T10:17:15;100183.69;;;23.95;100.00
48553;BME280;34335;51.566;6.994;2023-07-29T10:19:41;100179.22;;;24.23;100.00
48553;BME280;34335;51.566;6.994;2023-07-29T10:22:08;100183.22;;;24.16;100.00
48553;BME280;34335;51.566;6.994;2023-07-29T10:24:35;100171.44;;;24.20;100.00
48553;BME280;34335;51.566;6.994;2023-07-29T10:27:05;100165.94;;;24.23;100.00
48553;BME280;34335;51.566;6.994;2023-07-29T10:29:32;100160.16;;;24.17;100.00
48553;BME280;34335;51.566;6.994;2023-07-29T10:32:01;100172.28;;;23.93;100.00
48553;BME280;34335;51.566;6.994;2023-07-29T10:34:28;100178.38;;;23.95;100.00
48553;BME280;34335;51.566;6.994;2023-07-29T10:36:54;100168.09;;;24.04;100.00
48553;BME280;34335;51.566;6.994;2023-07-29T10:39:20;100175.56;;;24.52;100.00
48553;BME280;34335;51.566;6.994;2023-07-29T10:41:56;100172.63;;;24.82;100.00
48553;BME280;34335;51.566;6.994;2023-07-29T10:47:12;100171.75;;;24.82;100.00
48553;BME280;34335;51.566;6.994;2023-07-29T10:49:40;100159.59;;;24.52;100.00
48553;BME280;34335;51.566;6.994;2023-07-29T10:52:06;100167.00;;;24.34;100.00
48553;BME280;34335;51.566;6.994;2023-07-29T10:54:41;100161.78;;;24.85;100.00
48553;BME280;34335;51.566;6.994;2023-07-29T10:57:07;100168.66;;;24.62;100.00
48553;BME280;34335;51.566;6.994;2023-07-29T10:59:33;100176.03;;;24.84;100.00
48553;BME280;34335;51.566;6.994;2023-07-29T11:02:02;100177.28;;;24.92;100.00
48553;BME280;34335;51.566;6.994;2023-07-29T11:04:46;100166.63;;;25.43;100.00
48553;BME280;34335;51.566;6.994;2023-07-29T11:12:33;100157.50;;;24.96;100.00
48553;BME280;34335;51.566;6.994;2023-07-29T11:17:46;100155.91;;;24.80;100.00
48553;BME280;34335;51.566;6.994;2023-07-29T11:20:13;100163.63;;;24.57;99.51
48553;BME280;34335;51.566;6.994;2023-07-29T11:22:39;100159.13;;;24.85;100.00
48553;BME280;34335;51.566;6.994;2023-07-29T11:25:07;100166.75;;;24.77;100.00
48553;BME280;34335;51.566;6.994;2023-07-29T11:27:33;100165.13;;;24.62;100.00
48553;BME280;34335;51.566;6.994;2023-07-29T11:30:07;100160.25;;;24.55;100.00
48553;BME280;34335;51.566;6.994;2023-07-29T11:32:34;100161.53;;;25.14;100.00
48553;BME280;34335;51.566;6.994;2023-07-29T11:35:17;100160.31;;;24.41;100.00
48553;BME280;34335;51.566;6.994;2023-07-29T11:37:45;100164.34;;;24.34;100.00
48553;BME280;34335;51.566;6.994;2023-07-29T11:40:14;100162.91;;;24.02;100.00
48553;BME280;34335;51.566;6.994;2023-07-29T11:42:40;100159.47;;;24.40;100.00
48553;BME280;34335;51.566;6.994;2023-07-29T11:45:06;100171.94;;;24.00;100.00
48553;BME280;34335;51.566;6.994;2023-07-29T11:47:32;100153.00;;;24.57;100.00
48553;BME280;34335;51.566;6.994;2023-07-29T11:50:03;100159.69;;;24.37;100.00
48553;BME280;34335;51.566;6.994;2023-07-29T11:52:31;100151.03;;;24.87;100.00
48553;BME280;34335;51.566;6.994;2023-07-29T11:54:58;100156.97;;;24.91;100.00
48553;BME280;34335;51.566;6.994;2023-07-29T11:57:24;100156.47;;;24.85;99.11
48553;BME280;34335;51.566;6.994;2023-07-29T11:59:49;100157.81;;;24.78;100.00
48553;BME280;34335;51.566;6.994;2023-07-29T12:02:16;100147.59;;;24.85;100.00
48553;BME280;34335;51.566;6.994;2023-07-29T12:04:43;100137.91;;;25.10;100.00
48553;BME280;34335;51.566;6.994;2023-07-29T12:07:10;100136.66;;;24.77;96.82
48553;BME280;34335;51.566;6.994;2023-07-29T12:09:35;100141.03;;;25.41;97.52
48553;BME280;34335;51.566;6.994;2023-07-29T12:12:05;100141.06;;;25.28;98.77
48553;BME280;34335;51.566;6.994;2023-07-29T12:14:31;100133.09;;;25.65;100.00
48553;BME280;34335;51.566;6.994;2023-07-29T12:17:00;100136.31;;;25.57;100.00
48553;BME280;34335;51.566;6.994;2023-07-29T12:19:31;100141.09;;;25.15;96.94
48553;BME280;34335;51.566;6.994;2023-07-29T12:21:57;100128.78;;;25.01;100.00
48553;BME280;34335;51.566;6.994;2023-07-29T12:24:22;100143.66;;;25.03;100.00
48553;BME280;34335;51.566;6.994;2023-07-29T12:26:48;100142.59;;;24.93;99.85
48553;BME280;34335;51.566;6.994;2023-07-29T12:29:17;100143.88;;;24.62;99.56
48553;BME280;34335;51.566;6.994;2023-07-29T12:31:45;100140.94;;;25.42;100.00
48553;BME280;34335;51.566;6.994;2023-07-29T12:34:17;100148.06;;;25.29;98.43
48553;BME280;34335;51.566;6.994;2023-07-29T12:36:46;100140.31;;;25.39;99.85
48553;BME280;34335;51.566;6.994;2023-07-29T12:39:39;100142.63;;;25.80;99.59
48553;BME280;34335;51.566;6.994;2023-07-29T12:42:02;100147.34;;;26.12;100.00
48553;BME280;34335;51.566;6.994;2023-07-29T12:44:33;100160.84;;;25.74;92.29
48553;BME280;34335;51.566;6.994;2023-07-29T12:47:01;100163.66;;;25.59;91.42
48553;BME280;34335;51.566;6.994;2023-07-29T12:49:28;100152.81;;;25.87;100.00
48553;BME280;34335;51.566;6.994;2023-07-29T12:51:54;100156.59;;;25.47;93.43
48553;BME280;34335;51.566;6.994;2023-07-29T12:54:19;100151.28;;;25.34;95.46
48553;BME280;34335;51.566;6.994;2023-07-29T12:56:45;100151.13;;;24.98;94.86